Search for airport 
image banner adimage banner ad
image banner ad

VEBR - Barrackpore (Iaf)

Located in , India

ICAO - , IATA -

Data provided by Airmate  

General information

Coordinates: N22°46'57" E88°21'46"
Elevation is feet MSL.
 
Rated:
View ratings: [VIEW]


View others Airports in West Bengal

Operational data

Open for public use
Current time UTC:
Current local time:
Weather at : VECC - Kolkata ( 17 km )
METAR: VECC 201000Z 12004KT 3800 HZ SCT020 FEW030CB 34/28 Q1005 NOSIG
TAF: TAF VECC 200800Z 2009/2018 23008KT 4000 HZ SCT020 SCT100 BECMG 2016/2018 2800 HZ
View NOTAMs / SUP AIP / TFR affecting this airport [VIEW]
Communications frequencies: [VIEW]

Runways:

Airport contact information

Address: India

Satellite view of VEBR